sensor_id;sensor_type;location;lat;lon;timestamp;pressure;altitude;pressure_sealevel;temperature;humidity
58473;BME280;44775;51.564;5.460;2023-05-29T00:00:12;101994.91;;;14.72;82.40
58473;BME280;44775;51.564;5.460;2023-05-29T00:02:45;102014.56;;;14.88;81.98
58473;BME280;44775;51.564;5.460;2023-05-29T00:05:11;102011.88;;;14.88;81.52
58473;BME280;44775;51.564;5.460;2023-05-29T00:07:38;102019.41;;;14.52;82.76
58473;BME280;44775;51.564;5.460;2023-05-29T00:10:04;102006.31;;;13.99;85.54
58473;BME280;44775;51.564;5.460;2023-05-29T00:12:30;102012.78;;;14.22;83.92
58473;BME280;44775;51.564;5.460;2023-05-29T00:14:56;102018.34;;;14.29;83.92
58473;BME280;44775;51.564;5.460;2023-05-29T00:17:22;102026.16;;;14.14;83.46
58473;BME280;44775;51.564;5.460;2023-05-29T00:19:48;102018.84;;;14.32;82.59
58473;BME280;44775;51.564;5.460;2023-05-29T00:22:13;102018.66;;;14.17;82.96
58473;BME280;44775;51.564;5.460;2023-05-29T00:24:38;102016.16;;;14.24;82.94
58473;BME280;44775;51.564;5.460;2023-05-29T00:27:04;102027.38;;;14.20;82.86
58473;BME280;44775;51.564;5.460;2023-05-29T00:29:29;102019.88;;;14.39;82.80
58473;BME280;44775;51.564;5.460;2023-05-29T00:31:55;102013.47;;;14.24;81.93
58473;BME280;44775;51.564;5.460;2023-05-29T00:34:22;102034.84;;;14.00;82.61
58473;BME280;44775;51.564;5.460;2023-05-29T00:36:48;102032.41;;;14.14;82.76
58473;BME280;44775;51.564;5.460;2023-05-29T00:39:14;102025.53;;;14.20;81.63
58473;BME280;44775;51.564;5.460;2023-05-29T00:41:39;102034.06;;;14.07;81.67
58473;BME280;44775;51.564;5.460;2023-05-29T00:44:04;102036.56;;;13.66;81.04
58473;BME280;44775;51.564;5.460;2023-05-29T00:46:31;102036.31;;;13.52;81.70
58473;BME280;44775;51.564;5.460;2023-05-29T00:48:57;102048.31;;;13.65;81.76
58473;BME280;44775;51.564;5.460;2023-05-29T00:51:24;102040.84;;;13.77;81.90
58473;BME280;44775;51.564;5.460;2023-05-29T00:53:50;102045.22;;;13.52;81.15
58473;BME280;44775;51.564;5.460;2023-05-29T00:56:16;102043.44;;;13.17;82.72
58473;BME280;44775;51.564;5.460;2023-05-29T00:58:43;102049.16;;;13.22;81.92
58473;BME280;44775;51.564;5.460;2023-05-29T01:01:08;102057.38;;;13.38;81.37
58473;BME280;44775;51.564;5.460;2023-05-29T01:03:34;102060.00;;;13.56;80.93
58473;BME280;44775;51.564;5.460;2023-05-29T01:06:01;102061.59;;;13.41;82.06
58473;BME280;44775;51.564;5.460;2023-05-29T01:08:28;102058.38;;;13.37;81.57
58473;BME280;44775;51.564;5.460;2023-05-29T01:10:56;102063.22;;;13.60;82.92
58473;BME280;44775;51.564;5.460;2023-05-29T01:13:27;102061.19;;;13.54;82.83
58473;BME280;44775;51.564;5.460;2023-05-29T01:15:59;102063.09;;;12.99;83.64
58473;BME280;44775;51.564;5.460;2023-05-29T01:18:45;102067.06;;;12.95;84.31
58473;BME280;44775;51.564;5.460;2023-05-29T01:21:50;102068.44;;;12.82;84.97
58473;BME280;44775;51.564;5.460;2023-05-29T01:24:28;102048.69;;;12.65;85.62
58473;BME280;44775;51.564;5.460;2023-05-29T01:27:01;102055.47;;;12.41;85.98
58473;BME280;44775;51.564;5.460;2023-05-29T01:29:29;102064.94;;;12.18;87.26
58473;BME280;44775;51.564;5.460;2023-05-29T01:31:58;102069.03;;;12.22;89.16
58473;BME280;44775;51.564;5.460;2023-05-29T01:34:23;102051.19;;;12.31;89.55
58473;BME280;44775;51.564;5.460;2023-05-29T01:36:49;102063.28;;;12.35;89.66
58473;BME280;44775;51.564;5.460;2023-05-29T01:39:15;102066.91;;;12.61;89.92
58473;BME280;44775;51.564;5.460;2023-05-29T01:41:41;102069.06;;;12.58;89.03
58473;BME280;44775;51.564;5.460;2023-05-29T01:44:08;102065.09;;;12.16;89.88
58473;BME280;44775;51.564;5.460;2023-05-29T01:46:35;102069.19;;;12.11;90.94
58473;BME280;44775;51.564;5.460;2023-05-29T01:49:01;102058.75;;;11.70;91.42
58473;BME280;44775;51.564;5.460;2023-05-29T01:51:27;102058.41;;;11.46;91.64
58473;BME280;44775;51.564;5.460;2023-05-29T01:53:53;102063.25;;;11.23;93.37
58473;BME280;44775;51.564;5.460;2023-05-29T01:56:19;102063.78;;;11.46;94.25
58473;BME280;44775;51.564;5.460;2023-05-29T01:58:45;102055.66;;;11.75;95.04
58473;BME280;44775;51.564;5.460;2023-05-29T02:01:11;102057.34;;;11.76;93.97
58473;BME280;44775;51.564;5.460;2023-05-29T02:03:36;102061.03;;;11.75;94.92
58473;BME280;44775;51.564;5.460;2023-05-29T02:06:02;102054.03;;;11.54;92.19
58473;BME280;44775;51.564;5.460;2023-05-29T02:08:27;102049.25;;;11.48;92.74
58473;BME280;44775;51.564;5.460;2023-05-29T02:10:53;102063.88;;;11.54;95.55
58473;BME280;44775;51.564;5.460;2023-05-29T02:13:19;102064.25;;;11.22;92.94
58473;BME280;44775;51.564;5.460;2023-05-29T02:15:44;102051.53;;;11.80;93.90
58473;BME280;44775;51.564;5.460;2023-05-29T02:18:15;102048.47;;;11.75;91.48
58473;BME280;44775;51.564;5.460;2023-05-29T02:20:42;102058.06;;;11.78;90.03
58473;BME280;44775;51.564;5.460;2023-05-29T02:23:08;102059.19;;;11.85;91.71
58473;BME280;44775;51.564;5.460;2023-05-29T02:25:34;102060.66;;;11.97;93.00
58473;BME280;44775;51.564;5.460;2023-05-29T02:27:59;102056.81;;;11.63;90.40
58473;BME280;44775;51.564;5.460;2023-05-29T02:30:24;102066.50;;;11.17;92.20
58473;BME280;44775;51.564;5.460;2023-05-29T02:32:50;102058.34;;;11.08;94.01
58473;BME280;44775;51.564;5.460;2023-05-29T02:35:16;102075.56;;;11.63;94.56
58473;BME280;44775;51.564;5.460;2023-05-29T02:37:43;102070.09;;;11.54;93.56
58473;BME280;44775;51.564;5.460;2023-05-29T02:40:08;102072.78;;;11.54;93.14
58473;BME280;44775;51.564;5.460;2023-05-29T02:42:34;102086.19;;;11.45;92.84
58473;BME280;44775;51.564;5.460;2023-05-29T02:44:59;102080.66;;;11.56;93.86
58473;BME280;44775;51.564;5.460;2023-05-29T02:47:25;102077.88;;;11.38;91.84
58473;BME280;44775;51.564;5.460;2023-05-29T02:49:50;102087.47;;;11.31;93.75
58473;BME280;44775;51.564;5.460;2023-05-29T02:52:16;102081.13;;;11.22;93.27
58473;BME280;44775;51.564;5.460;2023-05-29T02:54:41;102087.31;;;11.32;93.72
58473;BME280;44775;51.564;5.460;2023-05-29T02:57:06;102090.81;;;11.52;92.16
58473;BME280;44775;51.564;5.460;2023-05-29T02:59:31;102091.47;;;11.64;93.51
58473;BME280;44775;51.564;5.460;2023-05-29T03:01:57;102090.16;;;11.31;92.88
58473;BME280;44775;51.564;5.460;2023-05-29T03:04:22;102081.13;;;11.22;94.36
58473;BME280;44775;51.564;5.460;2023-05-29T03:06:48;102080.50;;;11.57;94.07
58473;BME280;44775;51.564;5.460;2023-05-29T03:09:14;102087.06;;;11.82;91.70
58473;BME280;44775;51.564;5.460;2023-05-29T03:11:41;102080.44;;;11.77;89.53
58473;BME280;44775;51.564;5.460;2023-05-29T03:14:06;102082.53;;;11.36;91.30
58473;BME280;44775;51.564;5.460;2023-05-29T03:16:31;102074.00;;;11.70;91.44
58473;BME280;44775;51.564;5.460;2023-05-29T03:18:57;102084.78;;;11.41;90.60
58473;BME280;44775;51.564;5.460;2023-05-29T03:21:22;102095.88;;;11.55;91.50
58473;BME280;44775;51.564;5.460;2023-05-29T03:23:48;102089.13;;;11.51;92.09
58473;BME280;44775;51.564;5.460;2023-05-29T03:26:13;102078.13;;;11.54;92.00
58473;BME280;44775;51.564;5.460;2023-05-29T03:28:39;102092.41;;;11.26;92.23
58473;BME280;44775;51.564;5.460;2023-05-29T03:31:05;102082.97;;;11.12;92.79
58473;BME280;44775;51.564;5.460;2023-05-29T03:33:30;102085.25;;;11.07;93.54
58473;BME280;44775;51.564;5.460;2023-05-29T03:35:55;102094.69;;;11.01;94.88
58473;BME280;44775;51.564;5.460;2023-05-29T03:38:21;102088.63;;;10.70;95.13
58473;BME280;44775;51.564;5.460;2023-05-29T03:40:46;102100.72;;;11.03;95.81
58473;BME280;44775;51.564;5.460;2023-05-29T03:43:12;102077.63;;;10.93;95.86
58473;BME280;44775;51.564;5.460;2023-05-29T03:45:37;102090.72;;;10.76;96.88
58473;BME280;44775;51.564;5.460;2023-05-29T03:48:02;102086.38;;;10.95;96.80
58473;BME280;44775;51.564;5.460;2023-05-29T03:50:27;102096.91;;;10.86;96.85
58473;BME280;44775;51.564;5.460;2023-05-29T03:52:53;102081.84;;;10.76;97.58
58473;BME280;44775;51.564;5.460;2023-05-29T03:55:18;102082.13;;;10.82;96.36
58473;BME280;44775;51.564;5.460;2023-05-29T03:57:43;102093.66;;;10.83;96.60
58473;BME280;44775;51.564;5.460;2023-05-29T04:00:10;102104.91;;;10.57;97.11
58473;BME280;44775;51.564;5.460;2023-05-29T04:02:40;102095.94;;;10.78;98.01
58473;BME280;44775;51.564;5.460;2023-05-29T04:05:06;102094.78;;;10.61;98.37
58473;BME280;44775;51.564;5.460;2023-05-29T04:07:32;102113.81;;;10.87;98.71
58473;BME280;44775;51.564;5.460;2023-05-29T04:09:58;102114.06;;;10.64;98.23
58473;BME280;44775;51.564;5.460;2023-05-29T04:12:23;102108.66;;;10.45;98.75
58473;BME280;44775;51.564;5.460;2023-05-29T04:14:48;102117.06;;;10.31;99.73
58473;BME280;44775;51.564;5.460;2023-05-29T04:17:13;102117.88;;;10.72;98.62
58473;BME280;44775;51.564;5.460;2023-05-29T04:19:39;102121.94;;;10.76;98.45
58473;BME280;44775;51.564;5.460;2023-05-29T04:22:04;102123.94;;;10.93;97.55
58473;BME280;44775;51.564;5.460;2023-05-29T04:24:29;102131.13;;;11.02;96.36
58473;BME280;44775;51.564;5.460;2023-05-29T04:26:57;102124.25;;;10.90;96.75
58473;BME280;44775;51.564;5.460;2023-05-29T04:29:22;102123.25;;;10.81;97.92
58473;BME280;44775;51.564;5.460;2023-05-29T04:31:48;102119.03;;;10.98;96.54
58473;BME280;44775;51.564;5.460;2023-05-29T04:34:13;102126.13;;;10.59;97.49
58473;BME280;44775;51.564;5.460;2023-05-29T04:36:41;102119.81;;;10.50;98.28
58473;BME280;44775;51.564;5.460;2023-05-29T04:39:09;102136.25;;;10.55;97.92
58473;BME280;44775;51.564;5.460;2023-05-29T04:41:35;102132.63;;;10.66;97.87
58473;BME280;44775;51.564;5.460;2023-05-29T04:44:00;102133.94;;;10.81;96.67
58473;BME280;44775;51.564;5.460;2023-05-29T04:46:26;102130.84;;;10.86;96.55
58473;BME280;44775;51.564;5.460;2023-05-29T04:48:52;102130.97;;;10.75;96.61
58473;BME280;44775;51.564;5.460;2023-05-29T04:51:21;102133.66;;;10.84;95.40
58473;BME280;44775;51.564;5.460;2023-05-29T04:53:47;102129.97;;;10.76;95.77
58473;BME280;44775;51.564;5.460;2023-05-29T04:56:14;102132.22;;;10.61;96.41
58473;BME280;44775;51.564;5.460;2023-05-29T04:58:40;102139.78;;;10.56;96.93
58473;BME280;44775;51.564;5.460;2023-05-29T05:01:06;102130.19;;;10.44;97.95
58473;BME280;44775;51.564;5.460;2023-05-29T05:03:33;102140.84;;;10.34;98.93
58473;BME280;44775;51.564;5.460;2023-05-29T05:06:02;102133.00;;;10.42;98.10
58473;BME280;44775;51.564;5.460;2023-05-29T05:08:29;102126.44;;;10.66;97.90
58473;BME280;44775;51.564;5.460;2023-05-29T05:10:55;102139.31;;;11.01;95.96
58473;BME280;44775;51.564;5.460;2023-05-29T05:13:20;102138.56;;;10.89;94.75
58473;BME280;44775;51.564;5.460;2023-05-29T05:15:46;102135.94;;;11.18;94.16
58473;BME280;44775;51.564;5.460;2023-05-29T05:18:11;102137.19;;;10.95;94.33
58473;BME280;44775;51.564;5.460;2023-05-29T05:20:37;102146.03;;;10.85;95.11
58473;BME280;44775;51.564;5.460;2023-05-29T05:23:02;102156.03;;;10.93;95.16
58473;BME280;44775;51.564;5.460;2023-05-29T05:25:27;102146.06;;;11.15;94.44
58473;BME280;44775;51.564;5.460;2023-05-29T05:27:52;102150.44;;;11.35;93.29
58473;BME280;44775;51.564;5.460;2023-05-29T05:30:18;102165.31;;;11.57;92.06
58473;BME280;44775;51.564;5.460;2023-05-29T05:32:43;102168.25;;;11.83;89.43
58473;BME280;44775;51.564;5.460;2023-05-29T05:35:08;102175.69;;;12.09;87.77
58473;BME280;44775;51.564;5.460;2023-05-29T05:37:36;102161.84;;;12.13;86.99
58473;BME280;44775;51.564;5.460;2023-05-29T05:40:01;102159.34;;;12.39;85.66
58473;BME280;44775;51.564;5.460;2023-05-29T05:42:28;102154.66;;;12.69;82.83
58473;BME280;44775;51.564;5.460;2023-05-29T05:44:53;102178.63;;;12.98;80.73
58473;BME280;44775;51.564;5.460;2023-05-29T05:47:18;102164.78;;;12.75;80.91
58473;BME280;44775;51.564;5.460;2023-05-29T05:49:44;102173.53;;;12.77;81.71
58473;BME280;44775;51.564;5.460;2023-05-29T05:52:09;102168.72;;;12.98;78.52
58473;BME280;44775;51.564;5.460;2023-05-29T05:54:34;102165.59;;;12.58;80.82
58473;BME280;44775;51.564;5.460;2023-05-29T05:57:00;102153.28;;;12.65;80.27
58473;BME280;44775;51.564;5.460;2023-05-29T05:59:26;102154.59;;;12.79;79.29
58473;BME280;44775;51.564;5.460;2023-05-29T06:01:51;102160.59;;;12.72;78.65
58473;BME280;44775;51.564;5.460;2023-05-29T06:04:17;102156.91;;;12.73;79.14
58473;BME280;44775;51.564;5.460;2023-05-29T06:06:42;102159.88;;;12.70;79.31
58473;BME280;44775;51.564;5.460;2023-05-29T06:09:07;102163.50;;;12.79;77.72
58473;BME280;44775;51.564;5.460;2023-05-29T06:11:34;102159.81;;;13.16;77.65
58473;BME280;44775;51.564;5.460;2023-05-29T06:13:59;102176.16;;;13.22;76.55
58473;BME280;44775;51.564;5.460;2023-05-29T06:16:24;102172.66;;;13.22;76.26
58473;BME280;44775;51.564;5.460;2023-05-29T06:18:50;102178.19;;;13.38;76.15
58473;BME280;44775;51.564;5.460;2023-05-29T06:21:15;102184.16;;;13.68;74.96
58473;BME280;44775;51.564;5.460;2023-05-29T06:23:41;102190.50;;;13.85;72.96
58473;BME280;44775;51.564;5.460;2023-05-29T06:26:06;102188.75;;;14.28;70.44
58473;BME280;44775;51.564;5.460;2023-05-29T06:28:32;102200.84;;;14.58;69.45
58473;BME280;44775;51.564;5.460;2023-05-29T06:30:57;102202.97;;;14.88;66.38
58473;BME280;44775;51.564;5.460;2023-05-29T06:33:23;102185.84;;;15.14;64.89
58473;BME280;44775;51.564;5.460;2023-05-29T06:35:49;102196.78;;;15.21;63.51
58473;BME280;44775;51.564;5.460;2023-05-29T06:38:14;102198.47;;;15.22;62.87
58473;BME280;44775;51.564;5.460;2023-05-29T06:40:40;102191.75;;;15.18;63.39
58473;BME280;44775;51.564;5.460;2023-05-29T06:43:05;102206.06;;;15.34;62.62
58473;BME280;44775;51.564;5.460;2023-05-29T06:45:31;102200.53;;;15.52;61.56
58473;BME280;44775;51.564;5.460;2023-05-29T06:47:56;102194.31;;;15.68;60.22
58473;BME280;44775;51.564;5.460;2023-05-29T06:50:22;102196.38;;;15.66;59.48
58473;BME280;44775;51.564;5.460;2023-05-29T06:52:47;102202.75;;;15.73;59.85
58473;BME280;44775;51.564;5.460;2023-05-29T06:55:12;102206.25;;;15.98;59.01
58473;BME280;44775;51.564;5.460;2023-05-29T06:57:38;102203.56;;;16.07;58.16
58473;BME280;44775;51.564;5.460;2023-05-29T07:00:05;102207.75;;;16.17;57.25
58473;BME280;44775;51.564;5.460;2023-05-29T07:02:31;102202.16;;;16.19;57.03
58473;BME280;44775;51.564;5.460;2023-05-29T07:04:56;102211.44;;;16.24;56.30
58473;BME280;44775;51.564;5.460;2023-05-29T07:07:22;102210.06;;;16.28;56.16
58473;BME280;44775;51.564;5.460;2023-05-29T07:09:47;102210.78;;;16.14;54.81
58473;BME280;44775;51.564;5.460;2023-05-29T07:12:12;102215.94;;;16.32;53.64
58473;BME280;44775;51.564;5.460;2023-05-29T07:14:38;102204.84;;;16.27;55.94
58473;BME280;44775;51.564;5.460;2023-05-29T07:17:03;102219.47;;;16.33;54.62
58473;BME280;44775;51.564;5.460;2023-05-29T07:19:28;102207.03;;;16.71;51.30
58473;BME280;44775;51.564;5.460;2023-05-29T07:21:54;102216.09;;;16.39;52.55
58473;BME280;44775;51.564;5.460;2023-05-29T07:24:19;102215.63;;;16.27;55.39
58473;BME280;44775;51.564;5.460;2023-05-29T07:26:45;102210.88;;;16.37;55.38
58473;BME280;44775;51.564;5.460;2023-05-29T07:29:10;102226.16;;;16.61;51.87
58473;BME280;44775;51.564;5.460;2023-05-29T07:31:36;102212.50;;;16.55;52.41
58473;BME280;44775;51.564;5.460;2023-05-29T07:34:02;102227.38;;;16.90;52.89
58473;BME280;44775;51.564;5.460;2023-05-29T07:36:29;102214.88;;;17.20;51.98
58473;BME280;44775;51.564;5.460;2023-05-29T07:38:56;102221.84;;;17.60;50.16
58473;BME280;44775;51.564;5.460;2023-05-29T07:41:23;102221.69;;;17.62;49.64
58473;BME280;44775;51.564;5.460;2023-05-29T07:43:48;102238.06;;;17.37;49.79
58473;BME280;44775;51.564;5.460;2023-05-29T07:46:17;102237.91;;;17.62;49.46
58473;BME280;44775;51.564;5.460;2023-05-29T07:48:42;102233.97;;;17.87;49.06
58473;BME280;44775;51.564;5.460;2023-05-29T07:51:08;102240.16;;;17.96;49.58
58473;BME280;44775;51.564;5.460;2023-05-29T07:53:34;102237.75;;;18.01;48.84
58473;BME280;44775;51.564;5.460;2023-05-29T07:56:00;102235.97;;;18.08;48.27
58473;BME280;44775;51.564;5.460;2023-05-29T07:58:26;102237.41;;;18.19;47.14
58473;BME280;44775;51.564;5.460;2023-05-29T08:00:52;102243.44;;;18.06;46.68
58473;BME280;44775;51.564;5.460;2023-05-29T08:03:17;102239.34;;;17.96;47.96
58473;BME280;44775;51.564;5.460;2023-05-29T08:05:42;102251.84;;;18.11;45.58
58473;BME280;44775;51.564;5.460;2023-05-29T08:08:08;102244.88;;;17.56;47.99
58473;BME280;44775;51.564;5.460;2023-05-29T08:10:33;102247.31;;;17.66;48.27
58473;BME280;44775;51.564;5.460;2023-05-29T08:12:58;102233.56;;;17.76;49.48
58473;BME280;44775;51.564;5.460;2023-05-29T08:15:23;102224.31;;;17.93;47.81
58473;BME280;44775;51.564;5.460;2023-05-29T08:17:51;102243.66;;;18.34;47.84
58473;BME280;44775;51.564;5.460;2023-05-29T08:20:16;102245.50;;;18.49;46.98
58473;BME280;44775;51.564;5.460;2023-05-29T08:22:42;102252.44;;;18.51;47.50
58473;BME280;44775;51.564;5.460;2023-05-29T08:25:07;102244.41;;;18.58;46.96
58473;BME280;44775;51.564;5.460;2023-05-29T08:27:33;102256.75;;;18.90;45.45
58473;BME280;44775;51.564;5.460;2023-05-29T08:29:58;102253.41;;;19.09;46.51
58473;BME280;44775;51.564;5.460;2023-05-29T08:32:24;102253.94;;;19.20;45.66
58473;BME280;44775;51.564;5.460;2023-05-29T08:34:49;102251.88;;;19.22;45.21
58473;BME280;44775;51.564;5.460;2023-05-29T08:37:15;102250.34;;;19.55;44.10
58473;BME280;44775;51.564;5.460;2023-05-29T08:39:41;102242.81;;;19.72;43.97
58473;BME280;44775;51.564;5.460;2023-05-29T08:42:19;102255.97;;;19.54;43.83
58473;BME280;44775;51.564;5.460;2023-05-29T08:44:47;102260.03;;;19.43;45.44
58473;BME280;44775;51.564;5.460;2023-05-29T08:47:16;102262.41;;;19.31;45.19
58473;BME280;44775;51.564;5.460;2023-05-29T08:49:51;102255.56;;;19.35;44.34
58473;BME280;44775;51.564;5.460;2023-05-29T08:52:24;102262.56;;;19.66;44.77
58473;BME280;44775;51.564;5.460;2023-05-29T08:54:53;102262.59;;;19.94;43.42
58473;BME280;44775;51.564;5.460;2023-05-29T08:57:20;102267.06;;;20.02;42.78
58473;BME280;44775;51.564;5.460;2023-05-29T08:59:46;102276.03;;;20.02;43.19
58473;BME280;44775;51.564;5.460;2023-05-29T09:02:14;102269.69;;;19.89;41.69
58473;BME280;44775;51.564;5.460;2023-05-29T09:04:44;102276.88;;;19.75;43.62
58473;BME280;44775;51.564;5.460;2023-05-29T09:07:18;102267.28;;;19.79;44.54
58473;BME280;44775;51.564;5.460;2023-05-29T09:09:45;102277.03;;;19.95;41.73
58473;BME280;44775;51.564;5.460;2023-05-29T09:12:10;102270.22;;;20.05;43.20
58473;BME280;44775;51.564;5.460;2023-05-29T09:14:43;102270.28;;;20.12;40.76
58473;BME280;44775;51.564;5.460;2023-05-29T09:17:10;102263.53;;;20.01;42.07
58473;BME280;44775;51.564;5.460;2023-05-29T09:19:38;102269.91;;;19.94;41.42
58473;BME280;44775;51.564;5.460;2023-05-29T09:22:10;102268.44;;;19.91;44.11
58473;BME280;44775;51.564;5.460;2023-05-29T09:24:36;102268.69;;;19.96;43.32
58473;BME280;44775;51.564;5.460;2023-05-29T09:27:03;102259.47;;;20.19;41.43
58473;BME280;44775;51.564;5.460;2023-05-29T09:29:39;102272.84;;;20.20;43.19
58473;BME280;44775;51.564;5.460;2023-05-29T09:32:08;102270.00;;;20.63;42.07
58473;BME280;44775;51.564;5.460;2023-05-29T09:34:34;102268.31;;;20.56;42.01
58473;BME280;44775;51.564;5.460;2023-05-29T09:37:04;102274.75;;;20.89;41.45
58473;BME280;44775;51.564;5.460;2023-05-29T09:42:07;102260.78;;;21.06;41.66
58473;BME280;44775;51.564;5.460;2023-05-29T09:44:32;102251.16;;;21.03;42.09
58473;BME280;44775;51.564;5.460;2023-05-29T09:46:59;102259.84;;;21.33;41.37
58473;BME280;44775;51.564;5.460;2023-05-29T09:49:25;102262.06;;;21.10;41.66
58473;BME280;44775;51.564;5.460;2023-05-29T09:51:55;102261.69;;;21.19;41.87
58473;BME280;44775;51.564;5.460;2023-05-29T09:54:21;102254.22;;;21.35;40.38
58473;BME280;44775;51.564;5.460;2023-05-29T09:56:46;102263.03;;;21.57;39.12
58473;BME280;44775;51.564;5.460;2023-05-29T09:59:13;102269.53;;;21.82;39.67
58473;BME280;44775;51.564;5.460;2023-05-29T10:01:44;102258.63;;;21.69;39.24
58473;BME280;44775;51.564;5.460;2023-05-29T10:04:10;102259.91;;;21.73;41.49
58473;BME280;44775;51.564;5.460;2023-05-29T10:06:37;102258.03;;;21.87;39.00
58473;BME280;44775;51.564;5.460;2023-05-29T10:09:06;102263.03;;;21.83;38.37
58473;BME280;44775;51.564;5.460;2023-05-29T10:11:35;102260.31;;;22.03;39.01
58473;BME280;44775;51.564;5.460;2023-05-29T10:14:03;102266.59;;;22.17;39.04
58473;BME280;44775;51.564;5.460;2023-05-29T10:16:31;102264.31;;;22.14;40.11
58473;BME280;44775;51.564;5.460;2023-05-29T10:19:01;102266.56;;;22.37;38.42
58473;BME280;44775;51.564;5.460;2023-05-29T10:21:32;102263.44;;;22.33;36.39
58473;BME280;44775;51.564;5.460;2023-05-29T10:24:04;102262.56;;;22.59;36.91
58473;BME280;44775;51.564;5.460;2023-05-29T10:26:34;102265.19;;;22.93;36.97
58473;BME280;44775;51.564;5.460;2023-05-29T10:34:50;102259.44;;;22.49;39.39
58473;BME280;44775;51.564;5.460;2023-05-29T10:37:33;102261.59;;;22.99;38.85
58473;BME280;44775;51.564;5.460;2023-05-29T10:40:08;102258.94;;;22.72;36.35
58473;BME280;44775;51.564;5.460;2023-05-29T10:42:43;102257.97;;;22.47;37.44
58473;BME280;44775;51.564;5.460;2023-05-29T10:45:09;102262.16;;;22.56;37.06
58473;BME280;44775;51.564;5.460;2023-05-29T10:47:37;102247.84;;;22.67;36.18
58473;BME280;44775;51.564;5.460;2023-05-29T10:50:02;102254.13;;;22.68;37.49
58473;BME280;44775;51.564;5.460;2023-05-29T10:52:34;102258.69;;;22.94;37.70
58473;BME280;44775;51.564;5.460;2023-05-29T10:55:03;102249.50;;;22.81;38.79
58473;BME280;44775;51.564;5.460;2023-05-29T10:57:29;102254.47;;;22.84;38.43
58473;BME280;44775;51.564;5.460;2023-05-29T11:00:05;102252.69;;;23.17;37.21
58473;BME280;44775;51.564;5.460;2023-05-29T11:02:32;102249.25;;;23.28;36.75
58473;BME280;44775;51.564;5.460;2023-05-29T11:07:53;102249.22;;;22.96;37.08
58473;BME280;44775;51.564;5.460;2023-05-29T11:10:43;102248.22;;;22.77;38.50
58473;BME280;44775;51.564;5.460;2023-05-29T11:13:10;102244.47;;;22.78;39.91
58473;BME280;44775;51.564;5.460;2023-05-29T11:15:37;102233.06;;;22.95;37.14
58473;BME280;44775;51.564;5.460;2023-05-29T11:18:06;102235.56;;;23.03;38.28
58473;BME280;44775;51.564;5.460;2023-05-29T11:20:36;102236.09;;;23.18;36.28
58473;BME280;44775;51.564;5.460;2023-05-29T11:23:07;102226.69;;;23.14;38.67
58473;BME280;44775;51.564;5.460;2023-05-29T11:25:35;102239.06;;;23.17;38.50
58473;BME280;44775;51.564;5.460;2023-05-29T11:28:01;102243.56;;;22.98;39.60
58473;BME280;44775;51.564;5.460;2023-05-29T11:30:29;102221.97;;;23.28;38.43
58473;BME280;44775;51.564;5.460;2023-05-29T11:32:59;102234.22;;;23.19;40.06
58473;BME280;44775;51.564;5.460;2023-05-29T11:35:29;102230.56;;;23.31;37.44
58473;BME280;44775;51.564;5.460;2023-05-29T11:37:56;102231.81;;;23.36;39.21
58473;BME280;44775;51.564;5.460;2023-05-29T11:40:21;102216.97;;;23.56;39.01
58473;BME280;44775;51.564;5.460;2023-05-29T11:42:46;102214.88;;;23.84;34.02
58473;BME280;44775;51.564;5.460;2023-05-29T11:45:17;102235.59;;;23.91;34.59
58473;BME280;44775;51.564;5.460;2023-05-29T11:47:58;102220.19;;;23.47;38.90
58473;BME280;44775;51.564;5.460;2023-05-29T11:50:28;102224.63;;;23.41;35.99
58473;BME280;44775;51.564;5.460;2023-05-29T11:52:55;102236.13;;;23.50;35.33
58473;BME280;44775;51.564;5.460;2023-05-29T11:55:21;102226.47;;;23.47;37.08
58473;BME280;44775;51.564;5.460;2023-05-29T11:57:48;102229.91;;;23.68;34.80
58473;BME280;44775;51.564;5.460;2023-05-29T12:00:15;102224.84;;;23.40;37.46
58473;BME280;44775;51.564;5.460;2023-05-29T12:02:41;102215.91;;;23.57;37.08
58473;BME280;44775;51.564;5.460;2023-05-29T12:05:13;102219.13;;;23.79;35.95
58473;BME280;44775;51.564;5.460;2023-05-29T12:07:50;102212.81;;;23.79;37.46
58473;BME280;44775;51.564;5.460;2023-05-29T12:10:17;102227.25;;;23.54;35.34
58473;BME280;44775;51.564;5.460;2023-05-29T12:12:50;102215.41;;;23.67;38.22
58473;BME280;44775;51.564;5.460;2023-05-29T12:15:16;102222.63;;;23.87;35.81
58473;BME280;44775;51.564;5.460;2023-05-29T12:17:43;102228.69;;;23.89;33.32
58473;BME280;44775;51.564;5.460;2023-05-29T12:20:10;102219.78;;;24.00;36.83
58473;BME280;44775;51.564;5.460;2023-05-29T12:22:37;102217.00;;;23.82;37.57
58473;BME280;44775;51.564;5.460;2023-05-29T12:25:05;102212.88;;;23.66;38.09
58473;BME280;44775;51.564;5.460;2023-05-29T12:27:31;102216.47;;;23.91;34.47
58473;BME280;44775;51.564;5.460;2023-05-29T12:30:01;102219.75;;;23.50;33.39
58473;BME280;44775;51.564;5.460;2023-05-29T12:32:40;102208.84;;;23.50;34.13
58473;BME280;44775;51.564;5.460;2023-05-29T12:37:42;102209.56;;;23.64;38.33
58473;BME280;44775;51.564;5.460;2023-05-29T12:40:14;102207.94;;;24.06;33.70
58473;BME280;44775;51.564;5.460;2023-05-29T12:42:40;102216.75;;;24.08;34.02
58473;BME280;44775;51.564;5.460;2023-05-29T12:45:06;102210.44;;;23.57;37.74
58473;BME280;44775;51.564;5.460;2023-05-29T12:47:33;102217.75;;;23.89;32.53
58473;BME280;44775;51.564;5.460;2023-05-29T12:49:58;102218.97;;;23.43;39.26
58473;BME280;44775;51.564;5.460;2023-05-29T12:52:23;102212.88;;;23.09;37.52
58473;BME280;44775;51.564;5.460;2023-05-29T12:54:49;102227.41;;;23.34;33.48
58473;BME280;44775;51.564;5.460;2023-05-29T12:57:14;102215.69;;;23.59;38.32
58473;BME280;44775;51.564;5.460;2023-05-29T12:59:39;102213.75;;;23.34;37.18
58473;BME280;44775;51.564;5.460;2023-05-29T13:02:05;102219.22;;;23.34;38.83